createdAt,value
2018-05-06T00:01:33.266Z,15.20
2018-05-06T00:04:01.609Z,15.10
2018-05-06T00:06:29.138Z,15.00
2018-05-06T00:08:57.652Z,15.00
2018-05-06T00:11:25.178Z,14.90
2018-05-06T00:13:52.738Z,14.80
2018-05-06T00:16:20.279Z,14.80
2018-05-06T00:18:47.827Z,14.70
2018-05-06T00:21:16.116Z,14.70
2018-05-06T00:23:43.633Z,14.60
2018-05-06T00:26:11.190Z,14.50
2018-05-06T00:28:38.716Z,14.40
2018-05-06T00:31:06.282Z,14.40
2018-05-06T00:33:33.889Z,14.40
2018-05-06T00:36:01.394Z,14.40
2018-05-06T00:38:38.357Z,14.40
2018-05-06T00:41:05.982Z,14.30
2018-05-06T00:43:33.747Z,14.30
2018-05-06T00:46:01.272Z,14.30
2018-05-06T00:48:28.844Z,14.20
2018-05-06T00:50:56.378Z,14.10
2018-05-06T00:53:23.927Z,14.10
2018-05-06T00:55:51.448Z,13.90
2018-05-06T00:58:19.769Z,13.90
2018-05-06T01:00:47.310Z,13.90
2018-05-06T01:03:14.868Z,13.90
2018-05-06T01:05:42.404Z,14.10
2018-05-06T01:08:10.724Z,14.20
2018-05-06T01:10:38.259Z,14.20
2018-05-06T01:13:05.818Z,14.20
2018-05-06T01:15:33.349Z,14.10
2018-05-06T01:18:06.393Z,14.20
2018-05-06T01:20:33.945Z,14.10
2018-05-06T01:23:01.476Z,14.10
2018-05-06T01:25:29.034Z,14.10
2018-05-06T01:27:56.559Z,14.10
2018-05-06T01:30:24.112Z,14.00
2018-05-06T01:32:52.427Z,13.90
2018-05-06T01:35:19.998Z,13.90
2018-05-06T01:37:47.525Z,14.00
2018-05-06T01:40:15.817Z,14.00
2018-05-06T01:42:43.364Z,14.00
2018-05-06T01:45:10.884Z,13.90
2018-05-06T01:47:38.431Z,14.00
2018-05-06T01:50:05.963Z,14.00
2018-05-06T01:52:33.521Z,14.00
2018-05-06T01:55:01.057Z,14.00
2018-05-06T01:57:29.376Z,14.00
2018-05-06T01:59:56.936Z,14.00
2018-05-06T02:19:44.037Z,16.50
2018-05-06T02:22:11.564Z,16.60
2018-05-06T02:24:39.116Z,16.60
2018-05-06T02:27:06.663Z,16.70
2018-05-06T02:29:34.203Z,16.60
2018-05-06T02:32:01.754Z,16.50
2018-05-06T02:34:29.291Z,16.40
2018-05-06T02:36:56.845Z,16.10
2018-05-06T02:39:25.144Z,15.90
2018-05-06T02:41:52.694Z,15.80
2018-05-06T02:44:21.171Z,15.70
2018-05-06T02:46:48.700Z,15.60
2018-05-06T02:49:16.260Z,15.70
2018-05-06T02:51:44.564Z,16.10
2018-05-06T02:54:12.143Z,16.10
2018-05-06T02:56:39.675Z,16.20
2018-05-06T02:59:08.210Z,16.40
2018-05-06T03:01:35.742Z,16.30
2018-05-06T03:04:03.264Z,16.20
2018-05-06T03:06:30.821Z,16.20
2018-05-06T03:08:59.116Z,16.20
2018-05-06T03:11:26.679Z,16.20
2018-05-06T03:13:55.158Z,16.20
2018-05-06T03:16:22.717Z,16.20
2018-05-06T03:18:50.255Z,16.40
2018-05-06T03:21:18.552Z,16.70
2018-05-06T03:23:46.105Z,16.70
2018-05-06T03:26:13.645Z,16.80
2018-05-06T03:28:41.952Z,16.80
2018-05-06T03:31:09.487Z,16.80
2018-05-06T03:33:37.813Z,16.70
2018-05-06T03:36:05.347Z,16.60
2018-05-06T03:38:32.864Z,16.60
2018-05-06T03:41:00.431Z,16.60
2018-05-06T03:43:28.968Z,16.50
2018-05-06T03:45:56.519Z,16.50
2018-05-06T03:48:24.044Z,16.50
2018-05-06T03:50:51.592Z,16.50
2018-05-06T03:53:19.119Z,16.50
2018-05-06T03:55:46.653Z,16.40
2018-05-06T03:58:26.160Z,16.40
2018-05-06T04:00:54.449Z,16.20
2018-05-06T04:03:21.997Z,16.20
2018-05-06T04:05:49.623Z,16.10
2018-05-06T04:08:17.115Z,15.80
2018-05-06T04:10:44.645Z,15.70
2018-05-06T04:13:12.189Z,15.60
2018-05-06T04:15:39.733Z,15.50
2018-05-06T04:18:07.294Z,15.60
2018-05-06T04:20:34.821Z,15.60
2018-05-06T04:23:02.378Z,15.50
2018-05-06T04:25:29.927Z,15.30
2018-05-06T04:27:57.489Z,15.20
2018-05-06T04:30:25.020Z,15.30
2018-05-06T04:32:52.553Z,15.40
2018-05-06T04:35:20.109Z,15.40
2018-05-06T04:37:47.634Z,15.40
2018-05-06T04:40:15.190Z,15.30
2018-05-06T04:42:42.721Z,15.30
2018-05-06T04:45:10.284Z,15.30
2018-05-06T04:47:39.535Z,15.30
2018-05-06T04:50:07.065Z,15.30
2018-05-06T04:52:34.621Z,15.30
2018-05-06T04:55:02.143Z,15.20
2018-05-06T04:57:33.360Z,15.20
2018-05-06T05:00:00.952Z,15.20
2018-05-06T05:02:28.502Z,15.30
2018-05-06T05:04:56.028Z,15.50
2018-05-06T05:07:23.579Z,15.40
2018-05-06T05:09:51.127Z,15.30
2018-05-06T05:12:18.649Z,15.30
2018-05-06T05:14:46.199Z,15.10
2018-05-06T05:17:13.725Z,14.60
2018-05-06T05:19:41.285Z,14.70
2018-05-06T05:22:08.817Z,14.60
2018-05-06T05:24:36.376Z,14.40
2018-05-06T05:27:03.892Z,14.30
2018-05-06T05:29:32.201Z,14.40
2018-05-06T05:31:59.733Z,14.30
2018-05-06T05:34:28.051Z,14.50
2018-05-06T05:36:55.612Z,14.50
2018-05-06T05:39:23.144Z,14.70
2018-05-06T05:41:50.716Z,14.80
2018-05-06T05:44:19.004Z,14.90
2018-05-06T05:46:47.528Z,14.90
2018-05-06T05:49:16.021Z,15.10
2018-05-06T05:51:43.576Z,15.20
2018-05-06T05:54:11.096Z,15.40
2018-05-06T05:56:38.649Z,15.30
2018-05-06T05:59:06.180Z,15.40
2018-05-06T06:01:33.743Z,15.40
2018-05-06T06:04:01.286Z,15.40
2018-05-06T06:06:29.775Z,15.00
2018-05-06T06:08:58.089Z,15.20
2018-05-06T06:11:25.625Z,15.20
2018-05-06T06:13:53.186Z,15.50
2018-05-06T06:16:20.712Z,15.80
2018-05-06T06:18:48.260Z,15.60
2018-05-06T06:21:15.797Z,15.70
2018-05-06T06:23:43.357Z,15.80
2018-05-06T06:26:10.887Z,15.80
2018-05-06T06:28:38.416Z,15.80
2018-05-06T06:31:06.748Z,15.90
2018-05-06T06:33:34.279Z,15.90
2018-05-06T06:36:01.840Z,16.10
2018-05-06T06:38:29.369Z,16.00
2018-05-06T06:40:58.893Z,16.00
2018-05-06T06:43:26.413Z,16.40
2018-05-06T06:45:54.928Z,16.60
2018-05-06T06:48:22.457Z,16.60
2018-05-06T06:50:50.005Z,16.70
2018-05-06T06:53:17.545Z,16.70
2018-05-06T06:55:45.094Z,16.60
2018-05-06T06:58:12.675Z,16.90
2018-05-06T07:00:40.197Z,17.20
2018-05-06T07:03:07.744Z,17.50
2018-05-06T07:05:35.278Z,17.50
2018-05-06T07:08:02.827Z,17.20
2018-05-06T07:10:30.358Z,17.30
2018-05-06T07:12:57.904Z,17.20
2018-05-06T07:15:25.436Z,17.50
2018-05-06T07:17:53.040Z,17.50
2018-05-06T07:20:20.565Z,17.70
2018-05-06T07:22:48.084Z,17.60
2018-05-06T07:25:15.634Z,17.60
2018-05-06T07:27:43.152Z,17.60
2018-05-06T07:30:10.708Z,17.70
2018-05-06T07:32:38.241Z,17.70
2018-05-06T07:35:05.801Z,18.00
2018-05-06T07:37:34.113Z,18.30
2018-05-06T07:40:01.656Z,18.30
2018-05-06T07:42:29.202Z,18.20
2018-05-06T07:44:56.748Z,18.30
2018-05-06T07:47:24.309Z,18.60
2018-05-06T07:49:52.597Z,18.80
2018-05-06T07:52:20.140Z,18.70
2018-05-06T07:54:48.432Z,19.20
2018-05-06T07:57:16.749Z,19.30
2018-05-06T07:59:44.264Z,19.20
2018-05-06T08:02:12.582Z,19.10
2018-05-06T08:04:40.100Z,19.10
2018-05-06T08:07:08.388Z,19.40
2018-05-06T08:09:35.945Z,19.40
2018-05-06T08:12:03.485Z,19.60
2018-05-06T08:14:31.052Z,19.90
2018-05-06T08:16:59.349Z,20.30
2018-05-06T08:19:26.888Z,20.30
2018-05-06T08:21:56.155Z,20.60
2018-05-06T08:24:23.727Z,20.60
2018-05-06T08:26:51.249Z,20.80
2018-05-06T08:29:18.795Z,21.00
2018-05-06T08:31:46.319Z,21.10
2018-05-06T08:34:13.844Z,21.10
2018-05-06T08:36:41.606Z,21.30
2018-05-06T08:39:09.961Z,21.30
2018-05-06T08:41:37.520Z,21.30
2018-05-06T08:44:05.048Z,21.60
2018-05-06T08:46:32.596Z,21.80
2018-05-06T08:49:00.889Z,22.00
2018-05-06T08:51:29.527Z,22.00
2018-05-06T08:53:57.956Z,21.80
2018-05-06T08:56:25.504Z,21.70
2018-05-06T08:58:53.038Z,21.60
2018-05-06T09:01:20.584Z,21.40
2018-05-06T09:03:48.140Z,21.70
2018-05-06T09:06:15.668Z,21.80
2018-05-06T09:08:43.231Z,21.90
2018-05-06T09:11:11.794Z,21.80
2018-05-06T09:13:40.089Z,22.00
2018-05-06T09:16:08.619Z,22.00
2018-05-06T09:18:36.169Z,22.00
2018-05-06T09:21:03.692Z,22.00
2018-05-06T09:23:31.223Z,22.30
2018-05-06T09:25:59.731Z,22.40
2018-05-06T09:28:27.262Z,22.50
2018-05-06T09:30:54.850Z,22.80
2018-05-06T09:33:22.371Z,23.00
2018-05-06T09:35:49.958Z,22.90
2018-05-06T09:38:17.476Z,23.10
2018-05-06T09:40:45.840Z,23.00
2018-05-06T09:43:13.360Z,23.00
2018-05-06T09:45:40.924Z,23.30
2018-05-06T09:48:08.465Z,23.70
2018-05-06T09:50:35.993Z,23.80
2018-05-06T09:53:04.324Z,23.90
2018-05-06T09:55:31.880Z,23.80
2018-05-06T09:57:59.429Z,24.00
2018-05-06T10:00:26.963Z,24.10
2018-05-06T10:02:56.452Z,24.10
2018-05-06T10:05:23.999Z,24.10
2018-05-06T10:07:51.543Z,24.20
2018-05-06T10:10:19.273Z,24.50
2018-05-06T10:12:46.807Z,24.70
2018-05-06T10:15:14.372Z,24.70
2018-05-06T10:17:41.896Z,24.90
2018-05-06T10:20:11.417Z,25.10
2018-05-06T10:22:38.944Z,24.70
2018-05-06T10:25:06.529Z,24.60
2018-05-06T10:27:34.818Z,24.50
2018-05-06T10:30:02.379Z,24.50
2018-05-06T10:32:29.901Z,24.70
2018-05-06T10:34:58.196Z,25.10
2018-05-06T10:37:26.513Z,25.00
2018-05-06T10:39:54.035Z,25.00
2018-05-06T10:42:22.391Z,25.00
2018-05-06T10:44:49.920Z,25.00
2018-05-06T10:47:19.464Z,24.90
2018-05-06T10:49:47.796Z,25.60
2018-05-06T10:52:17.320Z,25.60
2018-05-06T10:54:45.816Z,25.50
2018-05-06T10:57:14.298Z,25.60
2018-05-06T10:59:41.833Z,25.90
2018-05-06T11:02:09.402Z,26.10
2018-05-06T11:04:37.929Z,26.20
2018-05-06T11:07:07.175Z,26.20
2018-05-06T11:09:34.735Z,26.20
2018-05-06T11:12:02.312Z,26.30
2018-05-06T11:14:29.856Z,26.40
2018-05-06T11:16:57.378Z,26.30
2018-05-06T11:19:24.938Z,26.50
2018-05-06T11:21:52.464Z,26.50
2018-05-06T11:24:20.025Z,26.50
2018-05-06T11:26:47.553Z,26.50
2018-05-06T11:29:15.116Z,26.50
2018-05-06T11:31:42.638Z,26.50
2018-05-06T11:34:10.197Z,26.40
2018-05-06T11:36:37.730Z,26.50
2018-05-06T11:39:05.302Z,26.30
2018-05-06T11:41:32.862Z,26.70
2018-05-06T11:44:00.392Z,27.00
2018-05-06T11:46:28.905Z,27.20
2018-05-06T11:48:56.446Z,27.30
2018-05-06T11:51:24.787Z,27.40
2018-05-06T11:53:52.318Z,27.40
2018-05-06T11:56:19.874Z,27.30
2018-05-06T11:58:47.399Z,27.20
2018-05-06T12:01:14.958Z,27.10
2018-05-06T12:03:42.489Z,27.10
2018-05-06T12:06:10.025Z,27.30
2018-05-06T12:08:37.590Z,27.40
2018-05-06T12:11:05.141Z,27.60
2018-05-06T12:13:34.628Z,27.80
2018-05-06T12:16:02.236Z,28.00
2018-05-06T12:18:29.716Z,28.30
2018-05-06T12:20:57.247Z,28.60
2018-05-06T12:23:25.763Z,28.60
2018-05-06T12:25:53.851Z,28.80
2018-05-06T12:28:21.410Z,28.80
2018-05-06T12:30:48.934Z,28.50
2018-05-06T12:33:16.482Z,28.50
2018-05-06T12:35:44.019Z,28.50
2018-05-06T12:38:11.544Z,28.50
2018-05-06T12:40:39.128Z,28.00
2018-05-06T12:43:06.652Z,28.20
2018-05-06T12:45:34.223Z,28.20
2018-05-06T12:48:01.768Z,28.20
2018-05-06T12:50:29.324Z,28.40
2018-05-06T12:52:56.847Z,28.80
2018-05-06T12:55:24.414Z,28.70
2018-05-06T12:57:51.972Z,28.90
2018-05-06T13:00:19.536Z,29.30
2018-05-06T13:02:47.067Z,29.60
2018-05-06T13:05:14.602Z,29.80
2018-05-06T13:07:42.155Z,29.70
2018-05-06T13:10:09.670Z,29.60
2018-05-06T13:12:37.225Z,29.90
2018-05-06T13:15:05.741Z,30.50
2018-05-06T13:17:33.530Z,30.50
2018-05-06T13:20:01.130Z,30.20
2018-05-06T13:22:28.682Z,30.20
2018-05-06T13:24:56.216Z,30.40
2018-05-06T13:27:23.770Z,30.80
2018-05-06T13:29:51.316Z,31.10
2018-05-06T13:32:19.197Z,31.70
2018-05-06T13:34:46.784Z,32.10
2018-05-06T13:37:15.232Z,32.30
2018-05-06T13:39:43.372Z,32.30
2018-05-06T13:42:11.732Z,32.10
2018-05-06T13:44:39.292Z,32.00
2018-05-06T13:47:06.860Z,32.20
2018-05-06T13:49:34.449Z,32.20
2018-05-06T13:52:01.993Z,32.00
2018-05-06T13:54:30.317Z,32.50
2018-05-06T13:56:58.833Z,32.50
2018-05-06T13:59:26.408Z,32.60
2018-05-06T14:01:53.975Z,32.90
2018-05-06T14:04:21.499Z,32.70
2018-05-06T14:06:49.070Z,32.70
2018-05-06T14:09:16.637Z,33.20
2018-05-06T14:11:44.204Z,33.70
2018-05-06T14:14:11.737Z,33.70
2018-05-06T14:16:39.268Z,33.50
2018-05-06T14:19:06.817Z,33.70
2018-05-06T14:21:34.361Z,33.70
2018-05-06T14:24:01.948Z,34.00
2018-05-06T14:26:29.479Z,33.60
2018-05-06T14:28:57.041Z,34.10
2018-05-06T14:31:24.591Z,34.30
2018-05-06T14:33:52.116Z,35.10
2018-05-06T14:36:19.670Z,34.70
2018-05-06T14:38:47.200Z,35.50
2018-05-06T14:41:14.760Z,36.20
2018-05-06T14:43:42.322Z,37.20
2018-05-06T14:49:09.989Z,37.70
2018-05-06T14:51:37.581Z,37.60
2018-05-06T14:54:05.108Z,38.30
2018-05-06T14:56:33.576Z,39.20
2018-05-06T14:59:01.135Z,38.50
2018-05-06T15:01:28.675Z,38.20
2018-05-06T15:03:56.233Z,39.10
2018-05-06T15:06:23.763Z,39.60
2018-05-06T15:08:51.320Z,38.60
2018-05-06T15:11:18.860Z,38.50
2018-05-06T15:13:46.383Z,36.30
2018-05-06T15:16:13.923Z,34.80
2018-05-06T15:18:42.268Z,30.50
2018-05-06T15:21:09.932Z,30.50
2018-05-06T15:23:37.413Z,29.70
2018-05-06T15:26:04.983Z,28.50
2018-05-06T15:28:33.272Z,28.40
2018-05-06T15:31:02.797Z,28.40
2018-05-06T15:33:30.317Z,27.90
2018-05-06T15:35:58.600Z,27.40
2018-05-06T15:38:26.278Z,27.30
2018-05-06T15:40:53.812Z,27.20
2018-05-06T15:43:23.321Z,27.00
2018-05-06T15:45:50.859Z,26.90
2018-05-06T15:48:18.407Z,27.70
2018-05-06T15:50:45.944Z,28.70
2018-05-06T15:53:13.500Z,29.80
2018-05-06T15:55:41.025Z,30.70
2018-05-06T15:58:09.315Z,32.30
2018-05-06T16:00:37.337Z,32.20
2018-05-06T16:03:16.800Z,31.00
2018-05-06T16:05:46.696Z,33.40
2018-05-06T16:08:14.244Z,33.40
2018-05-06T16:10:41.801Z,31.60
2018-05-06T16:13:09.334Z,32.00
2018-05-06T16:15:36.924Z,31.90
2018-05-06T16:18:04.453Z,32.80
2018-05-06T16:20:31.972Z,32.90
2018-05-06T16:22:59.526Z,33.50
2018-05-06T16:25:27.832Z,32.10
2018-05-06T16:27:55.383Z,32.10
2018-05-06T16:30:22.929Z,33.40
2018-05-06T16:32:51.265Z,32.60
2018-05-06T16:35:19.748Z,32.50
2018-05-06T16:37:49.255Z,32.80
2018-05-06T16:40:16.783Z,31.00
2018-05-06T16:42:44.304Z,28.90
2018-05-06T16:45:12.622Z,27.40
2018-05-06T16:47:40.157Z,27.40
2018-05-06T16:50:07.713Z,27.00
2018-05-06T16:52:35.997Z,26.00
2018-05-06T16:55:04.516Z,25.90
2018-05-06T16:57:32.092Z,26.00
2018-05-06T16:59:59.639Z,26.10
2018-05-06T17:02:27.185Z,26.00
2018-05-06T17:04:54.744Z,25.70
2018-05-06T17:07:22.304Z,25.60
2018-05-06T17:09:49.831Z,25.60
2018-05-06T17:12:17.388Z,25.30
2018-05-06T17:14:44.912Z,25.30
2018-05-06T17:17:12.520Z,25.50
2018-05-06T17:19:40.047Z,25.30
2018-05-06T17:22:07.625Z,25.30
2018-05-06T17:24:35.164Z,25.10
2018-05-06T17:27:02.700Z,25.10
2018-05-06T17:29:30.243Z,24.90
2018-05-06T17:31:57.794Z,24.80
2018-05-06T17:34:25.360Z,24.80
2018-05-06T17:36:52.886Z,24.90
2018-05-06T17:39:20.444Z,24.90
2018-05-06T17:41:48.731Z,24.70
2018-05-06T17:44:16.273Z,24.60
2018-05-06T17:46:44.815Z,24.50
2018-05-06T17:49:12.341Z,24.40
2018-05-06T17:51:48.172Z,24.30
2018-05-06T17:54:15.703Z,24.20
2018-05-06T17:56:43.267Z,24.20
2018-05-06T17:59:11.656Z,24.00
2018-05-06T18:01:39.293Z,24.00
2018-05-06T18:04:07.772Z,23.90
2018-05-06T18:06:36.265Z,23.90
2018-05-06T18:09:03.811Z,23.80
2018-05-06T18:11:32.108Z,23.50
2018-05-06T18:14:01.625Z,23.50
2018-05-06T18:16:29.156Z,23.50
2018-05-06T18:18:56.701Z,23.60
2018-05-06T18:21:24.228Z,23.50
2018-05-06T18:23:51.783Z,23.40
2018-05-06T18:26:19.322Z,23.40
2018-05-06T18:28:46.859Z,23.20
2018-05-06T18:31:14.416Z,23.10
2018-05-06T18:33:41.945Z,23.10
2018-05-06T18:36:09.493Z,23.00
2018-05-06T18:38:37.024Z,22.90
2018-05-06T18:41:04.568Z,22.80
2018-05-06T18:43:33.893Z,22.80
2018-05-06T18:46:01.863Z,22.70
2018-05-06T18:48:29.427Z,22.50
2018-05-06T18:50:56.951Z,22.30
2018-05-06T18:53:24.502Z,22.10
2018-05-06T18:55:52.798Z,21.80
2018-05-06T18:58:22.303Z,21.80
2018-05-06T19:00:49.832Z,21.70
2018-05-06T19:03:17.399Z,21.50
2018-05-06T19:05:44.948Z,21.40
2018-05-06T19:08:13.488Z,21.30
2018-05-06T19:10:41.978Z,21.10
2018-05-06T19:13:09.502Z,21.00
2018-05-06T19:15:37.238Z,20.80
2018-05-06T19:18:04.769Z,20.60
2018-05-06T19:20:33.087Z,20.50
2018-05-06T19:23:00.665Z,20.40
2018-05-06T19:25:28.237Z,20.30
2018-05-06T19:27:55.785Z,20.20
2018-05-06T19:30:24.292Z,20.20
2018-05-06T19:32:51.893Z,20.20
2018-05-06T19:35:20.385Z,20.10
2018-05-06T19:37:48.001Z,20.00
2018-05-06T19:40:15.491Z,19.90
2018-05-06T19:42:43.039Z,19.80
2018-05-06T19:45:10.601Z,19.70
2018-05-06T19:47:38.399Z,19.60
2018-05-06T19:50:05.949Z,19.50
2018-05-06T19:52:35.207Z,19.30
2018-05-06T19:55:02.785Z,19.30
2018-05-06T19:57:30.314Z,19.20
2018-05-06T19:59:57.883Z,19.10
2018-05-06T20:02:25.457Z,19.10
2018-05-06T20:04:53.285Z,19.00
2018-05-06T20:07:20.870Z,18.90
2018-05-06T20:09:48.367Z,18.80
2018-05-06T20:12:15.929Z,18.70
2018-05-06T20:14:48.235Z,18.70
2018-05-06T20:17:21.158Z,18.70
2018-05-06T20:19:49.870Z,18.50
2018-05-06T20:22:20.999Z,18.50
2018-05-06T20:24:48.547Z,18.50
2018-05-06T20:27:17.033Z,18.40
2018-05-06T20:29:44.589Z,18.30
2018-05-06T20:32:12.142Z,18.20
2018-05-06T20:34:39.739Z,18.10
2018-05-06T20:37:08.061Z,17.90
2018-05-06T20:39:35.634Z,17.90
2018-05-06T20:42:03.946Z,17.70
2018-05-06T20:44:31.532Z,17.70
2018-05-06T20:46:59.190Z,17.60
2018-05-06T20:49:26.762Z,17.50
2018-05-06T20:51:54.323Z,17.40
2018-05-06T20:54:21.852Z,17.40
2018-05-06T20:56:50.280Z,17.10
2018-05-06T20:59:17.833Z,17.10
2018-05-06T21:01:45.402Z,17.10
2018-05-06T21:04:12.969Z,17.00
2018-05-06T21:06:40.530Z,16.90
2018-05-06T21:09:08.404Z,16.90
2018-05-06T21:11:36.899Z,16.80
2018-05-06T21:14:05.692Z,16.70
2018-05-06T21:16:33.647Z,16.70
2018-05-06T21:19:01.233Z,16.70
2018-05-06T21:21:29.067Z,16.70
2018-05-06T21:23:59.897Z,16.60
2018-05-06T21:26:29.569Z,16.60
2018-05-06T21:28:57.440Z,16.60
2018-05-06T21:31:25.094Z,16.60
2018-05-06T21:33:53.799Z,16.60
2018-05-06T21:36:21.594Z,16.50
2018-05-06T21:38:51.558Z,16.50
2018-05-06T21:41:22.497Z,16.50
2018-05-06T21:43:50.287Z,16.50
2018-05-06T21:46:18.129Z,16.60
2018-05-06T21:48:46.394Z,16.70
2018-05-06T21:51:14.001Z,16.90
2018-05-06T21:53:42.142Z,17.10
2018-05-06T21:56:09.768Z,17.30
2018-05-06T21:58:40.334Z,17.60
2018-05-06T22:01:10.816Z,17.60
2018-05-06T22:03:42.320Z,17.80
2018-05-06T22:06:10.552Z,17.80
2018-05-06T22:08:39.866Z,17.90
2018-05-06T22:11:07.388Z,17.80
2018-05-06T22:13:34.937Z,17.90
2018-05-06T22:16:02.488Z,18.00
2018-05-06T22:18:30.334Z,18.10
2018-05-06T22:20:59.817Z,18.20
2018-05-06T22:23:28.327Z,18.30
2018-05-06T22:25:55.918Z,18.30
2018-05-06T22:28:24.260Z,18.20
2018-05-06T22:30:51.808Z,18.20
2018-05-06T22:33:19.320Z,18.10
2018-05-06T22:35:47.820Z,18.00
2018-05-06T22:38:15.376Z,17.90
2018-05-06T22:40:42.927Z,18.10
2018-05-06T22:43:12.467Z,18.10
2018-05-06T22:45:40.807Z,18.10
2018-05-06T22:48:11.109Z,18.10
2018-05-06T22:50:38.664Z,18.00
2018-05-06T22:53:06.297Z,18.20
2018-05-06T22:55:33.867Z,18.10
2018-05-06T22:58:02.815Z,18.00
2018-05-06T23:00:30.377Z,17.90
2018-05-06T23:02:58.681Z,17.70
2018-05-06T23:05:26.249Z,17.60
2018-05-06T23:07:53.807Z,17.60
2018-05-06T23:10:23.317Z,17.60
2018-05-06T23:12:50.848Z,17.60
2018-05-06T23:15:18.437Z,17.60
2018-05-06T23:17:46.105Z,17.70
2018-05-06T23:20:13.667Z,17.80
2018-05-06T23:22:41.221Z,17.70
2018-05-06T23:25:08.775Z,17.70
2018-05-06T23:27:36.385Z,17.70
2018-05-06T23:30:03.933Z,17.70
2018-05-06T23:32:31.507Z,17.70
2018-05-06T23:34:59.873Z,17.60
2018-05-06T23:37:27.403Z,17.60
2018-05-06T23:39:54.961Z,17.50
2018-05-06T23:42:22.484Z,17.40
2018-05-06T23:44:50.047Z,17.40
2018-05-06T23:47:17.592Z,17.30
2018-05-06T23:49:45.160Z,17.20
2018-05-06T23:52:12.712Z,17.20
2018-05-06T23:54:40.250Z,17.20
2018-05-06T23:57:08.601Z,17.10
2018-05-06T23:59:36.130Z,17.10
